📊 Raw Sensor Data

Showing records 32676 to 32700 of 84,722 total

ID Distance (ft) Battery V Battery A Int Temp (°F) Int Humid (%) Ext Temp (°F) Solar V RSSI SNR Time Stamp
52059 15.0 4.01 5 68 40 76 5.10 -72 7 09/15/2025 09:15 AM
52058 15.0 4.01 0 66 41 74 5.10 -72 7 09/15/2025 09:00 AM
52057 15.0 4.01 5 63 42 68 5.10 -70 8 09/15/2025 08:45 AM
52056 14.9 4.01 5 62 42 68 5.10 -71 8 09/15/2025 08:30 AM
52055 14.8 4.01 5 61 42 71 5.10 -75 7 09/15/2025 08:15 AM
52054 14.7 4.01 0 60 42 65 5.10 -78 8 09/15/2025 08:00 AM
52053 14.7 4.10 57 58 42 67 4.50 -78 7 09/15/2025 07:45 AM
52052 14.7 4.02 31 56 43 60 4.50 -78 8 09/15/2025 07:30 AM
52051 14.8 3.97 -18 55 43 57 4.50 -78 8 09/15/2025 07:15 AM
52050 14.8 3.93 -7 54 43 57 4.50 -77 7 09/15/2025 07:00 AM
52049 14.8 3.93 -9 54 43 56 3.20 -77 7 09/15/2025 06:45 AM
52048 14.7 3.99 -5 54 44 56 1.40 -77 8 09/15/2025 06:30 AM
52047 14.8 3.94 -5 53 44 56 0.00 -76 9 09/15/2025 06:15 AM
52046 14.8 3.94 -5 53 44 55 0.00 -75 8 09/15/2025 06:00 AM
52045 14.7 4.00 -5 53 44 55 0.10 -72 8 09/15/2025 05:45 AM
52044 14.7 3.94 -5 53 44 54 0.10 -72 8 09/15/2025 05:30 AM
52043 14.8 3.94 -5 53 44 55 0.00 -71 7 09/15/2025 05:15 AM
52042 14.7 4.00 -5 53 44 55 0.00 -71 8 09/15/2025 05:00 AM
52041 14.7 3.94 -5 53 44 55 0.00 -71 8 09/15/2025 04:45 AM
52040 14.7 3.94 -5 53 44 53 0.00 -71 8 09/15/2025 04:30 AM
52039 14.8 4.00 -5 53 44 54 0.00 -70 8 09/15/2025 04:15 AM
52038 14.8 3.95 -5 54 44 56 0.00 -71 8 09/15/2025 04:00 AM
52037 14.7 3.95 -5 54 44 55 0.00 -70 8 09/15/2025 03:45 AM
52036 14.7 4.00 -5 55 44 56 0.00 -70 8 09/15/2025 03:30 AM
52035 14.7 4.00 -5 55 44 56 0.00 -70 8 09/15/2025 03:15 AM